<?xml version="1.0" encoding="UTF-8" standalone="no" ?>
<gpx xmlns="http://www.topografix.com/GPX/1/1" xmlns:xsi="http://www.w3.org/2001/XMLSchema-instance" xsi:schemaLocation="http://www.topografix.com/GPX/1/1 http://www.topografix.com/GPX/1/1/gpx.xsd" version="1.1" creator="VisuGPX - https://www.visugpx.com">
  <metadata>
    <name>Etape 2 Férel - Les Moûtiers</name>
    <desc><![CDATA[Randonnée vélo Rennes - Hendaye, empruntant la Vélodyssée à partir de Saint-Brevin-Les-Pins. ]]></desc>
  </metadata>
  <trk>
    <name><![CDATA[Sequence 27]]></name>
    <trkseg>
      <trkpt lat="47.15119" lon="-2.15702">
        <ele>11</ele>
        <time>2016-07-22T12:57:56Z</time>
      </trkpt>
      <trkpt lat="47.15119" lon="-2.15702">
        <ele>11</ele>
        <time>2016-07-22T12:58:01Z</time>
      </trkpt>
      <trkpt lat="47.1512" lon="-2.15692">
        <ele>14</ele>
        <time>2016-07-22T12:58:08Z</time>
      </trkpt>
      <trkpt lat="47.1512" lon="-2.15678">
        <ele>18</ele>
        <time>2016-07-22T12:58:12Z</time>
      </trkpt>
      <trkpt lat="47.15122" lon="-2.15663">
        <ele>19</ele>
        <time>2016-07-22T12:58:16Z</time>
      </trkpt>
      <trkpt lat="47.15128" lon="-2.15624">
        <ele>30</ele>
        <time>2016-07-22T12:58:25Z</time>
      </trkpt>
      <trkpt lat="47.15129" lon="-2.15618">
        <ele>30</ele>
        <time>2016-07-22T12:58:26Z</time>
      </trkpt>
      <trkpt lat="47.15137" lon="-2.156">
        <ele>33</ele>
        <time>2016-07-22T12:58:31Z</time>
      </trkpt>
      <trkpt lat="47.15147" lon="-2.15582">
        <ele>35</ele>
        <time>2016-07-22T12:58:36Z</time>
      </trkpt>
      <trkpt lat="47.15161" lon="-2.1556">
        <ele>33</ele>
        <time>2016-07-22T12:58:41Z</time>
      </trkpt>
      <trkpt lat="47.15173" lon="-2.15538">
        <ele>34</ele>
        <time>2016-07-22T12:58:46Z</time>
      </trkpt>
      <trkpt lat="47.15184" lon="-2.1552">
        <ele>38</ele>
        <time>2016-07-22T12:58:51Z</time>
      </trkpt>
      <trkpt lat="47.15198" lon="-2.15497">
        <ele>40</ele>
        <time>2016-07-22T12:58:56Z</time>
      </trkpt>
      <trkpt lat="47.1521" lon="-2.15473">
        <ele>40</ele>
        <time>2016-07-22T12:59:01Z</time>
      </trkpt>
      <trkpt lat="47.15217" lon="-2.15445">
        <ele>41</ele>
        <time>2016-07-22T12:59:06Z</time>
      </trkpt>
      <trkpt lat="47.1522" lon="-2.15397">
        <ele>42</ele>
        <time>2016-07-22T12:59:14Z</time>
      </trkpt>
      <trkpt lat="47.15216" lon="-2.15366">
        <ele>47</ele>
        <time>2016-07-22T12:59:20Z</time>
      </trkpt>
      <trkpt lat="47.15221" lon="-2.15354">
        <ele>37</ele>
        <time>2016-07-22T12:59:21Z</time>
      </trkpt>
      <trkpt lat="47.15218" lon="-2.15317">
        <ele>37</ele>
        <time>2016-07-22T12:59:27Z</time>
      </trkpt>
      <trkpt lat="47.15216" lon="-2.15273">
        <ele>32</ele>
        <time>2016-07-22T12:59:33Z</time>
      </trkpt>
      <trkpt lat="47.15214" lon="-2.15253">
        <ele>32</ele>
        <time>2016-07-22T12:59:36Z</time>
      </trkpt>
      <trkpt lat="47.15209" lon="-2.15224">
        <ele>31</ele>
        <time>2016-07-22T12:59:41Z</time>
      </trkpt>
      <trkpt lat="47.15205" lon="-2.15187">
        <ele>30</ele>
        <time>2016-07-22T12:59:47Z</time>
      </trkpt>
      <trkpt lat="47.15199" lon="-2.15165">
        <ele>33</ele>
        <time>2016-07-22T12:59:51Z</time>
      </trkpt>
      <trkpt lat="47.152" lon="-2.15101">
        <ele>18</ele>
        <time>2016-07-22T12:59:59Z</time>
      </trkpt>
      <trkpt lat="47.15199" lon="-2.15089">
        <ele>18</ele>
        <time>2016-07-22T13:00:01Z</time>
      </trkpt>
      <trkpt lat="47.15196" lon="-2.15036">
        <ele>26</ele>
        <time>2016-07-22T13:00:10Z</time>
      </trkpt>
      <trkpt lat="47.15195" lon="-2.1503">
        <ele>27</ele>
        <time>2016-07-22T13:00:11Z</time>
      </trkpt>
      <trkpt lat="47.15192" lon="-2.14987">
        <ele>33</ele>
        <time>2016-07-22T13:00:19Z</time>
      </trkpt>
      <trkpt lat="47.15195" lon="-2.14958">
        <ele>38</ele>
        <time>2016-07-22T13:00:25Z</time>
      </trkpt>
      <trkpt lat="47.15197" lon="-2.14932">
        <ele>36</ele>
        <time>2016-07-22T13:00:29Z</time>
      </trkpt>
      <trkpt lat="47.15196" lon="-2.14921">
        <ele>42</ele>
        <time>2016-07-22T13:00:31Z</time>
      </trkpt>
      <trkpt lat="47.15198" lon="-2.14891">
        <ele>41</ele>
        <time>2016-07-22T13:00:36Z</time>
      </trkpt>
      <trkpt lat="47.152" lon="-2.14863">
        <ele>42</ele>
        <time>2016-07-22T13:00:41Z</time>
      </trkpt>
      <trkpt lat="47.15207" lon="-2.14825">
        <ele>22</ele>
        <time>2016-07-22T13:00:48Z</time>
      </trkpt>
      <trkpt lat="47.152" lon="-2.14827">
        <ele>25</ele>
        <time>2016-07-22T13:00:51Z</time>
      </trkpt>
      <trkpt lat="47.15182" lon="-2.14832">
        <ele>20</ele>
        <time>2016-07-22T13:00:56Z</time>
      </trkpt>
      <trkpt lat="47.15159" lon="-2.14838">
        <ele>20</ele>
        <time>2016-07-22T13:01:01Z</time>
      </trkpt>
      <trkpt lat="47.15137" lon="-2.14845">
        <ele>21</ele>
        <time>2016-07-22T13:01:06Z</time>
      </trkpt>
      <trkpt lat="47.15117" lon="-2.14849">
        <ele>20</ele>
        <time>2016-07-22T13:01:11Z</time>
      </trkpt>
      <trkpt lat="47.15102" lon="-2.14853">
        <ele>21</ele>
        <time>2016-07-22T13:01:16Z</time>
      </trkpt>
      <trkpt lat="47.15083" lon="-2.14858">
        <ele>19</ele>
        <time>2016-07-22T13:01:21Z</time>
      </trkpt>
      <trkpt lat="47.15057" lon="-2.14863">
        <ele>16</ele>
        <time>2016-07-22T13:01:26Z</time>
      </trkpt>
      <trkpt lat="47.15032" lon="-2.14866">
        <ele>15</ele>
        <time>2016-07-22T13:01:31Z</time>
      </trkpt>
      <trkpt lat="47.14999" lon="-2.14868">
        <ele>17</ele>
        <time>2016-07-22T13:01:38Z</time>
      </trkpt>
      <trkpt lat="47.14973" lon="-2.14866">
        <ele>18</ele>
        <time>2016-07-22T13:01:43Z</time>
      </trkpt>
      <trkpt lat="47.14939" lon="-2.14863">
        <ele>19</ele>
        <time>2016-07-22T13:01:50Z</time>
      </trkpt>
      <trkpt lat="47.14935" lon="-2.14864">
        <ele>19</ele>
        <time>2016-07-22T13:01:51Z</time>
      </trkpt>
      <trkpt lat="47.14896" lon="-2.14861">
        <ele>20</ele>
        <time>2016-07-22T13:02:00Z</time>
      </trkpt>
      <trkpt lat="47.14886" lon="-2.1486">
        <ele>20</ele>
        <time>2016-07-22T13:02:02Z</time>
      </trkpt>
      <trkpt lat="47.1487" lon="-2.1486">
        <ele>20</ele>
        <time>2016-07-22T13:02:06Z</time>
      </trkpt>
      <trkpt lat="47.14845" lon="-2.14858">
        <ele>19</ele>
        <time>2016-07-22T13:02:11Z</time>
      </trkpt>
      <trkpt lat="47.14821" lon="-2.14856">
        <ele>19</ele>
        <time>2016-07-22T13:02:16Z</time>
      </trkpt>
      <trkpt lat="47.14796" lon="-2.14852">
        <ele>20</ele>
        <time>2016-07-22T13:02:21Z</time>
      </trkpt>
      <trkpt lat="47.14774" lon="-2.14848">
        <ele>21</ele>
        <time>2016-07-22T13:02:26Z</time>
      </trkpt>
      <trkpt lat="47.14735" lon="-2.14833">
        <ele>22</ele>
        <time>2016-07-22T13:02:35Z</time>
      </trkpt>
      <trkpt lat="47.14731" lon="-2.14831">
        <ele>23</ele>
        <time>2016-07-22T13:02:36Z</time>
      </trkpt>
      <trkpt lat="47.14719" lon="-2.14827">
        <ele>21</ele>
        <time>2016-07-22T13:02:45Z</time>
      </trkpt>
      <trkpt lat="47.14719" lon="-2.14827">
        <ele>21</ele>
        <time>2016-07-22T13:02:46Z</time>
      </trkpt>
      <trkpt lat="47.14718" lon="-2.14825">
        <ele>22</ele>
        <time>2016-07-22T13:02:51Z</time>
      </trkpt>
      <trkpt lat="47.147" lon="-2.14791">
        <ele>23</ele>
        <time>2016-07-22T13:02:57Z</time>
      </trkpt>
      <trkpt lat="47.14679" lon="-2.14756">
        <ele>23</ele>
        <time>2016-07-22T13:03:03Z</time>
      </trkpt>
      <trkpt lat="47.14654" lon="-2.14708">
        <ele>24</ele>
        <time>2016-07-22T13:03:10Z</time>
      </trkpt>
      <trkpt lat="47.14648" lon="-2.14695">
        <ele>24</ele>
        <time>2016-07-22T13:03:12Z</time>
      </trkpt>
      <trkpt lat="47.1464" lon="-2.14664">
        <ele>27</ele>
        <time>2016-07-22T13:03:16Z</time>
      </trkpt>
      <trkpt lat="47.14635" lon="-2.14622">
        <ele>27</ele>
        <time>2016-07-22T13:03:21Z</time>
      </trkpt>
      <trkpt lat="47.14636" lon="-2.14568">
        <ele>27</ele>
        <time>2016-07-22T13:03:27Z</time>
      </trkpt>
      <trkpt lat="47.14635" lon="-2.14532">
        <ele>29</ele>
        <time>2016-07-22T13:03:31Z</time>
      </trkpt>
      <trkpt lat="47.14635" lon="-2.14455">
        <ele>26</ele>
        <time>2016-07-22T13:03:40Z</time>
      </trkpt>
      <trkpt lat="47.14636" lon="-2.14445">
        <ele>23</ele>
        <time>2016-07-22T13:03:41Z</time>
      </trkpt>
      <trkpt lat="47.14631" lon="-2.14395">
        <ele>27</ele>
        <time>2016-07-22T13:03:47Z</time>
      </trkpt>
      <trkpt lat="47.14623" lon="-2.14355">
        <ele>31</ele>
        <time>2016-07-22T13:03:52Z</time>
      </trkpt>
      <trkpt lat="47.14619" lon="-2.14321">
        <ele>33</ele>
        <time>2016-07-22T13:03:56Z</time>
      </trkpt>
      <trkpt lat="47.14616" lon="-2.1428">
        <ele>33</ele>
        <time>2016-07-22T13:04:01Z</time>
      </trkpt>
      <trkpt lat="47.14617" lon="-2.14236">
        <ele>30</ele>
        <time>2016-07-22T13:04:06Z</time>
      </trkpt>
      <trkpt lat="47.14618" lon="-2.14193">
        <ele>29</ele>
        <time>2016-07-22T13:04:11Z</time>
      </trkpt>
      <trkpt lat="47.14614" lon="-2.14137">
        <ele>29</ele>
        <time>2016-07-22T13:04:18Z</time>
      </trkpt>
      <trkpt lat="47.14613" lon="-2.14111">
        <ele>30</ele>
        <time>2016-07-22T13:04:21Z</time>
      </trkpt>
      <trkpt lat="47.14609" lon="-2.1407">
        <ele>34</ele>
        <time>2016-07-22T13:04:26Z</time>
      </trkpt>
      <trkpt lat="47.14605" lon="-2.14026">
        <ele>34</ele>
        <time>2016-07-22T13:04:31Z</time>
      </trkpt>
      <trkpt lat="47.14594" lon="-2.13984">
        <ele>36</ele>
        <time>2016-07-22T13:04:36Z</time>
      </trkpt>
      <trkpt lat="47.14572" lon="-2.13932">
        <ele>37</ele>
        <time>2016-07-22T13:04:44Z</time>
      </trkpt>
      <trkpt lat="47.14566" lon="-2.13916">
        <ele>32</ele>
        <time>2016-07-22T13:04:46Z</time>
      </trkpt>
      <trkpt lat="47.14541" lon="-2.13869">
        <ele>36</ele>
        <time>2016-07-22T13:04:53Z</time>
      </trkpt>
      <trkpt lat="47.14532" lon="-2.13848">
        <ele>36</ele>
        <time>2016-07-22T13:04:56Z</time>
      </trkpt>
      <trkpt lat="47.14522" lon="-2.13814">
        <ele>36</ele>
        <time>2016-07-22T13:05:01Z</time>
      </trkpt>
      <trkpt lat="47.14495" lon="-2.13764">
        <ele>35</ele>
        <time>2016-07-22T13:05:09Z</time>
      </trkpt>
      <trkpt lat="47.1449" lon="-2.13748">
        <ele>35</ele>
        <time>2016-07-22T13:05:11Z</time>
      </trkpt>
      <trkpt lat="47.14478" lon="-2.13703">
        <ele>38</ele>
        <time>2016-07-22T13:05:17Z</time>
      </trkpt>
      <trkpt lat="47.14476" lon="-2.13672">
        <ele>34</ele>
        <time>2016-07-22T13:05:21Z</time>
      </trkpt>
      <trkpt lat="47.14474" lon="-2.13632">
        <ele>31</ele>
        <time>2016-07-22T13:05:26Z</time>
      </trkpt>
      <trkpt lat="47.14471" lon="-2.13576">
        <ele>28</ele>
        <time>2016-07-22T13:05:33Z</time>
      </trkpt>
      <trkpt lat="47.14462" lon="-2.13524">
        <ele>31</ele>
        <time>2016-07-22T13:05:40Z</time>
      </trkpt>
      <trkpt lat="47.14458" lon="-2.13506">
        <ele>33</ele>
        <time>2016-07-22T13:05:43Z</time>
      </trkpt>
      <trkpt lat="47.1445" lon="-2.13488">
        <ele>37</ele>
        <time>2016-07-22T13:05:46Z</time>
      </trkpt>
      <trkpt lat="47.14439" lon="-2.13451">
        <ele>39</ele>
        <time>2016-07-22T13:05:51Z</time>
      </trkpt>
      <trkpt lat="47.14427" lon="-2.1342">
        <ele>43</ele>
        <time>2016-07-22T13:05:57Z</time>
      </trkpt>
      <trkpt lat="47.14412" lon="-2.13383">
        <ele>44</ele>
        <time>2016-07-22T13:06:03Z</time>
      </trkpt>
      <trkpt lat="47.14402" lon="-2.13375">
        <ele>43</ele>
        <time>2016-07-22T13:06:06Z</time>
      </trkpt>
      <trkpt lat="47.14375" lon="-2.1335">
        <ele>44</ele>
        <time>2016-07-22T13:06:13Z</time>
      </trkpt>
      <trkpt lat="47.14365" lon="-2.13341">
        <ele>43</ele>
        <time>2016-07-22T13:06:16Z</time>
      </trkpt>
      <trkpt lat="47.14348" lon="-2.13327">
        <ele>43</ele>
        <time>2016-07-22T13:06:21Z</time>
      </trkpt>
      <trkpt lat="47.14338" lon="-2.13313">
        <ele>43</ele>
        <time>2016-07-22T13:06:26Z</time>
      </trkpt>
      <trkpt lat="47.14325" lon="-2.13287">
        <ele>42</ele>
        <time>2016-07-22T13:06:31Z</time>
      </trkpt>
      <trkpt lat="47.14308" lon="-2.13232">
        <ele>41</ele>
        <time>2016-07-22T13:06:39Z</time>
      </trkpt>
      <trkpt lat="47.14302" lon="-2.13219">
        <ele>42</ele>
        <time>2016-07-22T13:06:41Z</time>
      </trkpt>
      <trkpt lat="47.14278" lon="-2.13183">
        <ele>43</ele>
        <time>2016-07-22T13:06:48Z</time>
      </trkpt>
      <trkpt lat="47.14267" lon="-2.1317">
        <ele>42</ele>
        <time>2016-07-22T13:06:51Z</time>
      </trkpt>
      <trkpt lat="47.14247" lon="-2.13147">
        <ele>43</ele>
        <time>2016-07-22T13:06:56Z</time>
      </trkpt>
      <trkpt lat="47.14227" lon="-2.13125">
        <ele>42</ele>
        <time>2016-07-22T13:07:01Z</time>
      </trkpt>
      <trkpt lat="47.14196" lon="-2.13102">
        <ele>43</ele>
        <time>2016-07-22T13:07:08Z</time>
      </trkpt>
      <trkpt lat="47.14177" lon="-2.13093">
        <ele>43</ele>
        <time>2016-07-22T13:07:12Z</time>
      </trkpt>
      <trkpt lat="47.14159" lon="-2.13088">
        <ele>43</ele>
        <time>2016-07-22T13:07:16Z</time>
      </trkpt>
      <trkpt lat="47.14139" lon="-2.1307">
        <ele>44</ele>
        <time>2016-07-22T13:07:22Z</time>
      </trkpt>
      <trkpt lat="47.14156" lon="-2.1305">
        <ele>50</ele>
        <time>2016-07-22T13:07:29Z</time>
      </trkpt>
      <trkpt lat="47.1416" lon="-2.13041">
        <ele>49</ele>
        <time>2016-07-22T13:07:31Z</time>
      </trkpt>
      <trkpt lat="47.14178" lon="-2.13001">
        <ele>50</ele>
        <time>2016-07-22T13:07:40Z</time>
      </trkpt>
      <trkpt lat="47.1419" lon="-2.12978">
        <ele>54</ele>
        <time>2016-07-22T13:07:45Z</time>
      </trkpt>
      <trkpt lat="47.14194" lon="-2.12967">
        <ele>55</ele>
        <time>2016-07-22T13:07:48Z</time>
      </trkpt>
      <trkpt lat="47.14199" lon="-2.12957">
        <ele>54</ele>
        <time>2016-07-22T13:07:51Z</time>
      </trkpt>
      <trkpt lat="47.1421" lon="-2.12931">
        <ele>56</ele>
        <time>2016-07-22T13:07:59Z</time>
      </trkpt>
      <trkpt lat="47.14215" lon="-2.12919">
        <ele>53</ele>
        <time>2016-07-22T13:08:01Z</time>
      </trkpt>
      <trkpt lat="47.14224" lon="-2.1289">
        <ele>52</ele>
        <time>2016-07-22T13:08:06Z</time>
      </trkpt>
      <trkpt lat="47.14232" lon="-2.1286">
        <ele>52</ele>
        <time>2016-07-22T13:08:11Z</time>
      </trkpt>
      <trkpt lat="47.1424" lon="-2.1283">
        <ele>52</ele>
        <time>2016-07-22T13:08:16Z</time>
      </trkpt>
      <trkpt lat="47.14247" lon="-2.12801">
        <ele>54</ele>
        <time>2016-07-22T13:08:21Z</time>
      </trkpt>
      <trkpt lat="47.14258" lon="-2.1277">
        <ele>54</ele>
        <time>2016-07-22T13:08:26Z</time>
      </trkpt>
      <trkpt lat="47.14288" lon="-2.12732">
        <ele>56</ele>
        <time>2016-07-22T13:08:35Z</time>
      </trkpt>
      <trkpt lat="47.14303" lon="-2.12716">
        <ele>57</ele>
        <time>2016-07-22T13:08:39Z</time>
      </trkpt>
      <trkpt lat="47.14313" lon="-2.12706">
        <ele>53</ele>
        <time>2016-07-22T13:08:41Z</time>
      </trkpt>
      <trkpt lat="47.14334" lon="-2.12691">
        <ele>54</ele>
        <time>2016-07-22T13:08:46Z</time>
      </trkpt>
      <trkpt lat="47.14357" lon="-2.12678">
        <ele>55</ele>
        <time>2016-07-22T13:08:51Z</time>
      </trkpt>
      <trkpt lat="47.14386" lon="-2.12663">
        <ele>56</ele>
        <time>2016-07-22T13:08:57Z</time>
      </trkpt>
      <trkpt lat="47.14403" lon="-2.12652">
        <ele>55</ele>
        <time>2016-07-22T13:09:01Z</time>
      </trkpt>
      <trkpt lat="47.14434" lon="-2.12632">
        <ele>55</ele>
        <time>2016-07-22T13:09:10Z</time>
      </trkpt>
      <trkpt lat="47.14434" lon="-2.12627">
        <ele>55</ele>
        <time>2016-07-22T13:09:11Z</time>
      </trkpt>
      <trkpt lat="47.14435" lon="-2.12594">
        <ele>55</ele>
        <time>2016-07-22T13:09:16Z</time>
      </trkpt>
      <trkpt lat="47.14435" lon="-2.12558">
        <ele>55</ele>
        <time>2016-07-22T13:09:21Z</time>
      </trkpt>
      <trkpt lat="47.14432" lon="-2.12513">
        <ele>50</ele>
        <time>2016-07-22T13:09:26Z</time>
      </trkpt>
      <trkpt lat="47.14423" lon="-2.12455">
        <ele>47</ele>
        <time>2016-07-22T13:09:33Z</time>
      </trkpt>
      <trkpt lat="47.14397" lon="-2.12405">
        <ele>49</ele>
        <time>2016-07-22T13:09:40Z</time>
      </trkpt>
      <trkpt lat="47.14383" lon="-2.12368">
        <ele>48</ele>
        <time>2016-07-22T13:09:45Z</time>
      </trkpt>
      <trkpt lat="47.14372" lon="-2.12344">
        <ele>48</ele>
        <time>2016-07-22T13:09:48Z</time>
      </trkpt>
      <trkpt lat="47.14364" lon="-2.12319">
        <ele>48</ele>
        <time>2016-07-22T13:09:51Z</time>
      </trkpt>
      <trkpt lat="47.14351" lon="-2.12257">
        <ele>48</ele>
        <time>2016-07-22T13:09:58Z</time>
      </trkpt>
      <trkpt lat="47.14338" lon="-2.12205">
        <ele>46</ele>
        <time>2016-07-22T13:10:04Z</time>
      </trkpt>
      <trkpt lat="47.14331" lon="-2.12168">
        <ele>49</ele>
        <time>2016-07-22T13:10:08Z</time>
      </trkpt>
      <trkpt lat="47.14329" lon="-2.12143">
        <ele>48</ele>
        <time>2016-07-22T13:10:11Z</time>
      </trkpt>
      <trkpt lat="47.14329" lon="-2.12101">
        <ele>48</ele>
        <time>2016-07-22T13:10:16Z</time>
      </trkpt>
      <trkpt lat="47.14338" lon="-2.12024">
        <ele>48</ele>
        <time>2016-07-22T13:10:24Z</time>
      </trkpt>
      <trkpt lat="47.1434" lon="-2.12004">
        <ele>47</ele>
        <time>2016-07-22T13:10:26Z</time>
      </trkpt>
      <trkpt lat="47.14321" lon="-2.11938">
        <ele>44</ele>
        <time>2016-07-22T13:10:34Z</time>
      </trkpt>
      <trkpt lat="47.1431" lon="-2.11926">
        <ele>44</ele>
        <time>2016-07-22T13:10:36Z</time>
      </trkpt>
      <trkpt lat="47.14271" lon="-2.11883">
        <ele>44</ele>
        <time>2016-07-22T13:10:43Z</time>
      </trkpt>
      <trkpt lat="47.14257" lon="-2.11863">
        <ele>43</ele>
        <time>2016-07-22T13:10:46Z</time>
      </trkpt>
      <trkpt lat="47.14236" lon="-2.1183">
        <ele>42</ele>
        <time>2016-07-22T13:10:51Z</time>
      </trkpt>
      <trkpt lat="47.14217" lon="-2.11792">
        <ele>41</ele>
        <time>2016-07-22T13:10:56Z</time>
      </trkpt>
      <trkpt lat="47.14195" lon="-2.11742">
        <ele>39</ele>
        <time>2016-07-22T13:11:03Z</time>
      </trkpt>
      <trkpt lat="47.14189" lon="-2.1172">
        <ele>41</ele>
        <time>2016-07-22T13:11:06Z</time>
      </trkpt>
      <trkpt lat="47.14178" lon="-2.11679">
        <ele>41</ele>
        <time>2016-07-22T13:11:11Z</time>
      </trkpt>
      <trkpt lat="47.14157" lon="-2.11612">
        <ele>43</ele>
        <time>2016-07-22T13:11:19Z</time>
      </trkpt>
      <trkpt lat="47.14153" lon="-2.11593">
        <ele>43</ele>
        <time>2016-07-22T13:11:21Z</time>
      </trkpt>
      <trkpt lat="47.14157" lon="-2.11546">
        <ele>43</ele>
        <time>2016-07-22T13:11:26Z</time>
      </trkpt>
      <trkpt lat="47.14163" lon="-2.1151">
        <ele>41</ele>
        <time>2016-07-22T13:11:31Z</time>
      </trkpt>
      <trkpt lat="47.14161" lon="-2.11491">
        <ele>41</ele>
        <time>2016-07-22T13:11:36Z</time>
      </trkpt>
      <trkpt lat="47.14159" lon="-2.11459">
        <ele>41</ele>
        <time>2016-07-22T13:11:41Z</time>
      </trkpt>
      <trkpt lat="47.14158" lon="-2.11418">
        <ele>41</ele>
        <time>2016-07-22T13:11:46Z</time>
      </trkpt>
      <trkpt lat="47.14153" lon="-2.11374">
        <ele>42</ele>
        <time>2016-07-22T13:11:51Z</time>
      </trkpt>
      <trkpt lat="47.14142" lon="-2.11328">
        <ele>40</ele>
        <time>2016-07-22T13:11:56Z</time>
      </trkpt>
      <trkpt lat="47.14128" lon="-2.11284">
        <ele>41</ele>
        <time>2016-07-22T13:12:01Z</time>
      </trkpt>
      <trkpt lat="47.14118" lon="-2.11236">
        <ele>43</ele>
        <time>2016-07-22T13:12:06Z</time>
      </trkpt>
      <trkpt lat="47.14114" lon="-2.1119">
        <ele>44</ele>
        <time>2016-07-22T13:12:11Z</time>
      </trkpt>
      <trkpt lat="47.14104" lon="-2.11133">
        <ele>48</ele>
        <time>2016-07-22T13:12:17Z</time>
      </trkpt>
      <trkpt lat="47.1408" lon="-2.11066">
        <ele>53</ele>
        <time>2016-07-22T13:12:25Z</time>
      </trkpt>
      <trkpt lat="47.14077" lon="-2.11057">
        <ele>53</ele>
        <time>2016-07-22T13:12:26Z</time>
      </trkpt>
      <trkpt lat="47.14069" lon="-2.11002">
        <ele>51</ele>
        <time>2016-07-22T13:12:32Z</time>
      </trkpt>
      <trkpt lat="47.14061" lon="-2.10944">
        <ele>48</ele>
        <time>2016-07-22T13:12:38Z</time>
      </trkpt>
      <trkpt lat="47.14058" lon="-2.10913">
        <ele>46</ele>
        <time>2016-07-22T13:12:41Z</time>
      </trkpt>
      <trkpt lat="47.14051" lon="-2.10865">
        <ele>47</ele>
        <time>2016-07-22T13:12:46Z</time>
      </trkpt>
      <trkpt lat="47.14042" lon="-2.1082">
        <ele>50</ele>
        <time>2016-07-22T13:12:51Z</time>
      </trkpt>
      <trkpt lat="47.14031" lon="-2.10746">
        <ele>51</ele>
        <time>2016-07-22T13:12:59Z</time>
      </trkpt>
      <trkpt lat="47.14026" lon="-2.10705">
        <ele>53</ele>
        <time>2016-07-22T13:13:04Z</time>
      </trkpt>
      <trkpt lat="47.14025" lon="-2.10686">
        <ele>51</ele>
        <time>2016-07-22T13:13:06Z</time>
      </trkpt>
      <trkpt lat="47.14027" lon="-2.10639">
        <ele>48</ele>
        <time>2016-07-22T13:13:11Z</time>
      </trkpt>
      <trkpt lat="47.1403" lon="-2.10597">
        <ele>48</ele>
        <time>2016-07-22T13:13:16Z</time>
      </trkpt>
      <trkpt lat="47.14032" lon="-2.10555">
        <ele>48</ele>
        <time>2016-07-22T13:13:21Z</time>
      </trkpt>
      <trkpt lat="47.14036" lon="-2.10511">
        <ele>48</ele>
        <time>2016-07-22T13:13:26Z</time>
      </trkpt>
      <trkpt lat="47.1404" lon="-2.10461">
        <ele>46</ele>
        <time>2016-07-22T13:13:31Z</time>
      </trkpt>
      <trkpt lat="47.14044" lon="-2.10412">
        <ele>45</ele>
        <time>2016-07-22T13:13:36Z</time>
      </trkpt>
      <trkpt lat="47.14054" lon="-2.10365">
        <ele>44</ele>
        <time>2016-07-22T13:13:41Z</time>
      </trkpt>
      <trkpt lat="47.14064" lon="-2.10321">
        <ele>43</ele>
        <time>2016-07-22T13:13:46Z</time>
      </trkpt>
      <trkpt lat="47.14071" lon="-2.10269">
        <ele>44</ele>
        <time>2016-07-22T13:13:52Z</time>
      </trkpt>
      <trkpt lat="47.14064" lon="-2.10215">
        <ele>43</ele>
        <time>2016-07-22T13:13:59Z</time>
      </trkpt>
      <trkpt lat="47.14056" lon="-2.10203">
        <ele>42</ele>
        <time>2016-07-22T13:14:02Z</time>
      </trkpt>
      <trkpt lat="47.14035" lon="-2.10211">
        <ele>41</ele>
        <time>2016-07-22T13:14:06Z</time>
      </trkpt>
      <trkpt lat="47.13984" lon="-2.10231">
        <ele>39</ele>
        <time>2016-07-22T13:14:14Z</time>
      </trkpt>
      <trkpt lat="47.13969" lon="-2.10237">
        <ele>39</ele>
        <time>2016-07-22T13:14:16Z</time>
      </trkpt>
      <trkpt lat="47.13934" lon="-2.10246">
        <ele>39</ele>
        <time>2016-07-22T13:14:21Z</time>
      </trkpt>
      <trkpt lat="47.13904" lon="-2.10257">
        <ele>36</ele>
        <time>2016-07-22T13:14:26Z</time>
      </trkpt>
      <trkpt lat="47.13855" lon="-2.1027">
        <ele>33</ele>
        <time>2016-07-22T13:14:33Z</time>
      </trkpt>
      <trkpt lat="47.13835" lon="-2.10277">
        <ele>34</ele>
        <time>2016-07-22T13:14:36Z</time>
      </trkpt>
      <trkpt lat="47.1378" lon="-2.10298">
        <ele>36</ele>
        <time>2016-07-22T13:14:45Z</time>
      </trkpt>
      <trkpt lat="47.13763" lon="-2.103">
        <ele>32</ele>
        <time>2016-07-22T13:14:48Z</time>
      </trkpt>
      <trkpt lat="47.13748" lon="-2.10303">
        <ele>30</ele>
        <time>2016-07-22T13:14:51Z</time>
      </trkpt>
      <trkpt lat="47.13724" lon="-2.1031">
        <ele>31</ele>
        <time>2016-07-22T13:14:56Z</time>
      </trkpt>
      <trkpt lat="47.13685" lon="-2.10318">
        <ele>32</ele>
        <time>2016-07-22T13:15:03Z</time>
      </trkpt>
      <trkpt lat="47.13668" lon="-2.10322">
        <ele>32</ele>
        <time>2016-07-22T13:15:06Z</time>
      </trkpt>
      <trkpt lat="47.1364" lon="-2.10336">
        <ele>34</ele>
        <time>2016-07-22T13:15:12Z</time>
      </trkpt>
      <trkpt lat="47.13623" lon="-2.10348">
        <ele>34</ele>
        <time>2016-07-22T13:15:16Z</time>
      </trkpt>
      <trkpt lat="47.13603" lon="-2.1036">
        <ele>34</ele>
        <time>2016-07-22T13:15:21Z</time>
      </trkpt>
      <trkpt lat="47.13583" lon="-2.10375">
        <ele>34</ele>
        <time>2016-07-22T13:15:26Z</time>
      </trkpt>
      <trkpt lat="47.13563" lon="-2.10387">
        <ele>35</ele>
        <time>2016-07-22T13:15:31Z</time>
      </trkpt>
      <trkpt lat="47.13542" lon="-2.10401">
        <ele>36</ele>
        <time>2016-07-22T13:15:36Z</time>
      </trkpt>
      <trkpt lat="47.13522" lon="-2.10414">
        <ele>36</ele>
        <time>2016-07-22T13:15:41Z</time>
      </trkpt>
      <trkpt lat="47.13495" lon="-2.10428">
        <ele>36</ele>
        <time>2016-07-22T13:15:48Z</time>
      </trkpt>
      <trkpt lat="47.13485" lon="-2.10437">
        <ele>38</ele>
        <time>2016-07-22T13:15:51Z</time>
      </trkpt>
      <trkpt lat="47.13456" lon="-2.10457">
        <ele>39</ele>
        <time>2016-07-22T13:15:58Z</time>
      </trkpt>
      <trkpt lat="47.13427" lon="-2.10476">
        <ele>39</ele>
        <time>2016-07-22T13:16:04Z</time>
      </trkpt>
      <trkpt lat="47.13412" lon="-2.10486">
        <ele>38</ele>
        <time>2016-07-22T13:16:07Z</time>
      </trkpt>
      <trkpt lat="47.13391" lon="-2.10497">
        <ele>37</ele>
        <time>2016-07-22T13:16:11Z</time>
      </trkpt>
      <trkpt lat="47.13368" lon="-2.10515">
        <ele>40</ele>
        <time>2016-07-22T13:16:16Z</time>
      </trkpt>
      <trkpt lat="47.13317" lon="-2.10543">
        <ele>38</ele>
        <time>2016-07-22T13:16:25Z</time>
      </trkpt>
      <trkpt lat="47.13296" lon="-2.10552">
        <ele>37</ele>
        <time>2016-07-22T13:16:28Z</time>
      </trkpt>
      <trkpt lat="47.13274" lon="-2.10561">
        <ele>36</ele>
        <time>2016-07-22T13:16:31Z</time>
      </trkpt>
      <trkpt lat="47.13232" lon="-2.10579">
        <ele>35</ele>
        <time>2016-07-22T13:16:37Z</time>
      </trkpt>
      <trkpt lat="47.13175" lon="-2.10608">
        <ele>32</ele>
        <time>2016-07-22T13:16:45Z</time>
      </trkpt>
      <trkpt lat="47.13166" lon="-2.10612">
        <ele>32</ele>
        <time>2016-07-22T13:16:46Z</time>
      </trkpt>
      <trkpt lat="47.13125" lon="-2.10638">
        <ele>30</ele>
        <time>2016-07-22T13:16:52Z</time>
      </trkpt>
      <trkpt lat="47.13083" lon="-2.10662">
        <ele>28</ele>
        <time>2016-07-22T13:16:59Z</time>
      </trkpt>
      <trkpt lat="47.1305" lon="-2.10678">
        <ele>30</ele>
        <time>2016-07-22T13:17:04Z</time>
      </trkpt>
      <trkpt lat="47.13033" lon="-2.10689">
        <ele>30</ele>
        <time>2016-07-22T13:17:07Z</time>
      </trkpt>
      <trkpt lat="47.13002" lon="-2.10705">
        <ele>31</ele>
        <time>2016-07-22T13:17:13Z</time>
      </trkpt>
      <trkpt lat="47.12984" lon="-2.1071">
        <ele>30</ele>
        <time>2016-07-22T13:17:16Z</time>
      </trkpt>
      <trkpt lat="47.12945" lon="-2.10735">
        <ele>29</ele>
        <time>2016-07-22T13:17:24Z</time>
      </trkpt>
      <trkpt lat="47.12932" lon="-2.10738">
        <ele>30</ele>
        <time>2016-07-22T13:17:26Z</time>
      </trkpt>
      <trkpt lat="47.12911" lon="-2.10747">
        <ele>30</ele>
        <time>2016-07-22T13:17:31Z</time>
      </trkpt>
      <trkpt lat="47.12879" lon="-2.10759">
        <ele>32</ele>
        <time>2016-07-22T13:17:38Z</time>
      </trkpt>
      <trkpt lat="47.12865" lon="-2.10763">
        <ele>31</ele>
        <time>2016-07-22T13:17:41Z</time>
      </trkpt>
      <trkpt lat="47.12844" lon="-2.1077">
        <ele>34</ele>
        <time>2016-07-22T13:17:46Z</time>
      </trkpt>
      <trkpt lat="47.12819" lon="-2.10778">
        <ele>34</ele>
        <time>2016-07-22T13:17:51Z</time>
      </trkpt>
      <trkpt lat="47.12786" lon="-2.10787">
        <ele>33</ele>
        <time>2016-07-22T13:17:58Z</time>
      </trkpt>
      <trkpt lat="47.1278" lon="-2.10792">
        <ele>33</ele>
        <time>2016-07-22T13:18:01Z</time>
      </trkpt>
      <trkpt lat="47.12748" lon="-2.10789">
        <ele>33</ele>
        <time>2016-07-22T13:18:08Z</time>
      </trkpt>
      <trkpt lat="47.12734" lon="-2.10788">
        <ele>33</ele>
        <time>2016-07-22T13:18:11Z</time>
      </trkpt>
      <trkpt lat="47.12717" lon="-2.10791">
        <ele>34</ele>
        <time>2016-07-22T13:18:16Z</time>
      </trkpt>
      <trkpt lat="47.12695" lon="-2.10781">
        <ele>38</ele>
        <time>2016-07-22T13:18:22Z</time>
      </trkpt>
      <trkpt lat="47.12686" lon="-2.10748">
        <ele>38</ele>
        <time>2016-07-22T13:18:30Z</time>
      </trkpt>
      <trkpt lat="47.12685" lon="-2.10744">
        <ele>39</ele>
        <time>2016-07-22T13:18:31Z</time>
      </trkpt>
      <trkpt lat="47.1268" lon="-2.10708">
        <ele>38</ele>
        <time>2016-07-22T13:18:36Z</time>
      </trkpt>
      <trkpt lat="47.12673" lon="-2.1067">
        <ele>45</ele>
        <time>2016-07-22T13:18:43Z</time>
      </trkpt>
      <trkpt lat="47.12671" lon="-2.10623">
        <ele>40</ele>
        <time>2016-07-22T13:18:49Z</time>
      </trkpt>
      <trkpt lat="47.1267" lon="-2.1061">
        <ele>41</ele>
        <time>2016-07-22T13:18:51Z</time>
      </trkpt>
      <trkpt lat="47.12656" lon="-2.10538">
        <ele>37</ele>
        <time>2016-07-22T13:19:00Z</time>
      </trkpt>
      <trkpt lat="47.12655" lon="-2.10532">
        <ele>36</ele>
        <time>2016-07-22T13:19:01Z</time>
      </trkpt>
      <trkpt lat="47.12641" lon="-2.105">
        <ele>45</ele>
        <time>2016-07-22T13:19:08Z</time>
      </trkpt>
      <trkpt lat="47.12638" lon="-2.10488">
        <ele>48</ele>
        <time>2016-07-22T13:19:11Z</time>
      </trkpt>
      <trkpt lat="47.1264" lon="-2.10467">
        <ele>52</ele>
        <time>2016-07-22T13:19:16Z</time>
      </trkpt>
      <trkpt lat="47.12631" lon="-2.10423">
        <ele>55</ele>
        <time>2016-07-22T13:19:22Z</time>
      </trkpt>
      <trkpt lat="47.12624" lon="-2.10381">
        <ele>50</ele>
        <time>2016-07-22T13:19:27Z</time>
      </trkpt>
      <trkpt lat="47.12619" lon="-2.10336">
        <ele>50</ele>
        <time>2016-07-22T13:19:33Z</time>
      </trkpt>
      <trkpt lat="47.12617" lon="-2.1031">
        <ele>50</ele>
        <time>2016-07-22T13:19:36Z</time>
      </trkpt>
      <trkpt lat="47.12612" lon="-2.10268">
        <ele>52</ele>
        <time>2016-07-22T13:19:41Z</time>
      </trkpt>
      <trkpt lat="47.12603" lon="-2.10228">
        <ele>48</ele>
        <time>2016-07-22T13:19:46Z</time>
      </trkpt>
      <trkpt lat="47.1259" lon="-2.10169">
        <ele>44</ele>
        <time>2016-07-22T13:19:53Z</time>
      </trkpt>
      <trkpt lat="47.12587" lon="-2.10135">
        <ele>42</ele>
        <time>2016-07-22T13:19:57Z</time>
      </trkpt>
      <trkpt lat="47.12581" lon="-2.10083">
        <ele>36</ele>
        <time>2016-07-22T13:20:02Z</time>
      </trkpt>
      <trkpt lat="47.12571" lon="-2.10052">
        <ele>35</ele>
        <time>2016-07-22T13:20:06Z</time>
      </trkpt>
      <trkpt lat="47.12559" lon="-2.10008">
        <ele>32</ele>
        <time>2016-07-22T13:20:11Z</time>
      </trkpt>
      <trkpt lat="47.12543" lon="-2.09966">
        <ele>32</ele>
        <time>2016-07-22T13:20:16Z</time>
      </trkpt>
      <trkpt lat="47.12521" lon="-2.09912">
        <ele>32</ele>
        <time>2016-07-22T13:20:23Z</time>
      </trkpt>
      <trkpt lat="47.12505" lon="-2.0987">
        <ele>28</ele>
        <time>2016-07-22T13:20:28Z</time>
      </trkpt>
      <trkpt lat="47.12484" lon="-2.09826">
        <ele>29</ele>
        <time>2016-07-22T13:20:34Z</time>
      </trkpt>
      <trkpt lat="47.12476" lon="-2.09813">
        <ele>29</ele>
        <time>2016-07-22T13:20:36Z</time>
      </trkpt>
      <trkpt lat="47.12457" lon="-2.09787">
        <ele>31</ele>
        <time>2016-07-22T13:20:41Z</time>
      </trkpt>
      <trkpt lat="47.12447" lon="-2.09772">
        <ele>33</ele>
        <time>2016-07-22T13:20:46Z</time>
      </trkpt>
      <trkpt lat="47.12446" lon="-2.09747">
        <ele>31</ele>
        <time>2016-07-22T13:20:51Z</time>
      </trkpt>
      <trkpt lat="47.1245" lon="-2.09721">
        <ele>32</ele>
        <time>2016-07-22T13:20:56Z</time>
      </trkpt>
      <trkpt lat="47.1245" lon="-2.09683">
        <ele>30</ele>
        <time>2016-07-22T13:21:01Z</time>
      </trkpt>
      <trkpt lat="47.1245" lon="-2.09617">
        <ele>33</ele>
        <time>2016-07-22T13:21:09Z</time>
      </trkpt>
      <trkpt lat="47.1245" lon="-2.09599">
        <ele>33</ele>
        <time>2016-07-22T13:21:11Z</time>
      </trkpt>
      <trkpt lat="47.12448" lon="-2.09538">
        <ele>33</ele>
        <time>2016-07-22T13:21:18Z</time>
      </trkpt>
      <trkpt lat="47.12447" lon="-2.09507">
        <ele>33</ele>
        <time>2016-07-22T13:21:22Z</time>
      </trkpt>
      <trkpt lat="47.12447" lon="-2.09477">
        <ele>34</ele>
        <time>2016-07-22T13:21:26Z</time>
      </trkpt>
      <trkpt lat="47.12447" lon="-2.0941">
        <ele>34</ele>
        <time>2016-07-22T13:21:35Z</time>
      </trkpt>
      <trkpt lat="47.12449" lon="-2.09391">
        <ele>35</ele>
        <time>2016-07-22T13:21:39Z</time>
      </trkpt>
      <trkpt lat="47.1245" lon="-2.0938">
        <ele>36</ele>
        <time>2016-07-22T13:21:41Z</time>
      </trkpt>
      <trkpt lat="47.12449" lon="-2.09351">
        <ele>36</ele>
        <time>2016-07-22T13:21:46Z</time>
      </trkpt>
      <trkpt lat="47.12444" lon="-2.09312">
        <ele>39</ele>
        <time>2016-07-22T13:21:52Z</time>
      </trkpt>
      <trkpt lat="47.12444" lon="-2.09285">
        <ele>37</ele>
        <time>2016-07-22T13:21:56Z</time>
      </trkpt>
      <trkpt lat="47.12435" lon="-2.0923">
        <ele>37</ele>
        <time>2016-07-22T13:22:04Z</time>
      </trkpt>
      <trkpt lat="47.12432" lon="-2.09217">
        <ele>38</ele>
        <time>2016-07-22T13:22:06Z</time>
      </trkpt>
      <trkpt lat="47.12434" lon="-2.09172">
        <ele>32</ele>
        <time>2016-07-22T13:22:14Z</time>
      </trkpt>
      <trkpt lat="47.12435" lon="-2.09159">
        <ele>31</ele>
        <time>2016-07-22T13:22:17Z</time>
      </trkpt>
      <trkpt lat="47.12437" lon="-2.0915">
        <ele>32</ele>
        <time>2016-07-22T13:22:21Z</time>
      </trkpt>
      <trkpt lat="47.12435" lon="-2.09135">
        <ele>34</ele>
        <time>2016-07-22T13:22:26Z</time>
      </trkpt>
      <trkpt lat="47.12432" lon="-2.09123">
        <ele>35</ele>
        <time>2016-07-22T13:22:31Z</time>
      </trkpt>
      <trkpt lat="47.12435" lon="-2.09116">
        <ele>28</ele>
        <time>2016-07-22T13:22:36Z</time>
      </trkpt>
      <trkpt lat="47.1243" lon="-2.09112">
        <ele>29</ele>
        <time>2016-07-22T13:22:41Z</time>
      </trkpt>
    </trkseg>
  </trk>
</gpx>